Terminal Aerodrome Forecast
Issued by NWS Pocatello, ID

Home | Current Version | Previous Version | Text Only | Print | Product List | Glossary On
Versions: 1 2 3 4 5 6 7 8 9 10 11 12 13
000
FTUS45 KPIH 062300
TAFPIH
TAF
KPIH 062320Z 0700/0724 26009KT P6SM FEW200
     FM070200 19007KT P6SM SKC
     FM071900 27010KT P6SM BKN200=

USA.gov is the U.S. government's official web portal to all federal, state and local government web resources and services.